createdAt,value
2023-03-18T00:01:23.812Z,11.08
2023-03-18T00:03:52.986Z,10.99
2023-03-18T00:06:23.982Z,11.04
2023-03-18T00:08:53.226Z,11.01
2023-03-18T00:11:22.590Z,11.07
2023-03-18T00:13:52.869Z,10.99
2023-03-18T00:16:22.055Z,10.99
2023-03-18T00:18:51.708Z,10.91
2023-03-18T00:21:21.101Z,10.93
2023-03-18T00:23:56.315Z,10.91
2023-03-18T00:26:25.748Z,10.84
2023-03-18T00:28:56.487Z,10.80
2023-03-18T00:31:27.635Z,10.86
2023-03-18T00:33:57.189Z,10.80
2023-03-18T00:36:26.436Z,10.83
2023-03-18T00:38:58.317Z,10.83
2023-03-18T00:41:28.748Z,10.85
2023-03-18T00:43:58.653Z,10.86
2023-03-18T00:46:29.952Z,10.84
2023-03-18T00:49:01.267Z,10.87
2023-03-18T00:51:33.876Z,10.82
2023-03-18T00:54:07.358Z,10.81
2023-03-18T00:56:38.631Z,10.82
2023-03-18T00:59:09.274Z,10.79
2023-03-18T01:01:39.114Z,10.86
2023-03-18T01:04:08.645Z,10.79
2023-03-18T01:06:39.145Z,10.83
2023-03-18T01:09:12.732Z,10.84
2023-03-18T01:11:41.912Z,10.91
2023-03-18T01:14:12.285Z,10.88
2023-03-18T01:16:41.470Z,10.92
2023-03-18T01:19:10.679Z,10.92
2023-03-18T01:21:39.819Z,10.95
2023-03-18T01:24:11.362Z,10.99
2023-03-18T01:26:40.468Z,11.05
2023-03-18T01:29:09.587Z,11.00
2023-03-18T01:31:38.757Z,10.93
2023-03-18T01:34:14.098Z,11.00
2023-03-18T01:36:50.874Z,10.97
2023-03-18T01:39:24.378Z,11.00
2023-03-18T01:41:53.672Z,10.92
2023-03-18T01:44:31.387Z,10.90
2023-03-18T01:47:02.051Z,10.95
2023-03-18T01:49:36.598Z,10.86
2023-03-18T01:52:11.480Z,10.93
2023-03-18T01:54:47.420Z,10.92
2023-03-18T01:57:18.584Z,10.86
2023-03-18T01:59:51.132Z,10.90
2023-03-18T02:02:21.042Z,10.91
2023-03-18T02:04:53.670Z,10.91
2023-03-18T02:07:25.446Z,10.96
2023-03-18T02:09:58.467Z,10.93
2023-03-18T02:12:33.433Z,10.91
2023-03-18T02:15:06.982Z,10.92
2023-03-18T02:17:40.089Z,10.92
2023-03-18T02:20:19.730Z,10.88
2023-03-18T02:22:53.412Z,10.89
2023-03-18T02:25:34.746Z,10.89
2023-03-18T02:28:10.479Z,10.81
2023-03-18T02:30:44.766Z,10.81
2023-03-18T02:33:17.521Z,10.80
2023-03-18T02:35:48.750Z,10.74
2023-03-18T02:38:18.247Z,10.68
2023-03-18T02:40:47.387Z,10.57
2023-03-18T02:43:25.708Z,10.57
2023-03-18T02:46:22.449Z,10.55
2023-03-18T02:48:52.637Z,10.49
2023-03-18T02:51:22.117Z,10.45
2023-03-18T02:53:51.723Z,10.48
2023-03-18T02:56:21.104Z,10.40
2023-03-18T02:58:51.850Z,10.47
2023-03-18T03:01:22.217Z,10.50
2023-03-18T03:03:51.607Z,10.48
2023-03-18T03:06:20.951Z,10.38
2023-03-18T03:08:50.846Z,10.40
2023-03-18T03:11:22.558Z,10.43
2023-03-18T03:13:54.602Z,10.37
2023-03-18T03:16:24.108Z,10.38
2023-03-18T03:18:53.594Z,10.35
2023-03-18T03:21:23.292Z,10.30
2023-03-18T03:23:53.021Z,10.21
2023-03-18T03:26:22.985Z,10.19
2023-03-18T03:28:53.614Z,10.14
2023-03-18T03:31:24.028Z,10.12
2023-03-18T03:33:53.252Z,10.01
2023-03-18T03:36:22.302Z,10.03
2023-03-18T03:38:51.461Z,9.93
2023-03-18T03:41:20.902Z,9.92
2023-03-18T03:43:53.119Z,9.94
2023-03-18T03:46:23.281Z,9.80
2023-03-18T03:48:52.511Z,9.83
2023-03-18T03:51:22.111Z,9.83
2023-03-18T03:53:51.255Z,9.90
2023-03-18T03:56:20.395Z,9.75
2023-03-18T03:58:49.583Z,9.71
2023-03-18T04:01:20.820Z,9.70
2023-03-18T04:03:51.163Z,9.65
2023-03-18T04:06:20.254Z,9.64
2023-03-18T04:08:57.987Z,9.72
2023-03-18T04:11:27.614Z,9.70
2023-03-18T04:13:57.062Z,9.67
2023-03-18T04:16:27.624Z,9.63
2023-03-18T04:18:56.874Z,9.59
2023-03-18T04:21:27.198Z,9.59
2023-03-18T04:23:58.109Z,9.60
2023-03-18T04:26:28.379Z,9.56
2023-03-18T04:29:00.722Z,9.56
2023-03-18T04:31:31.882Z,9.50
2023-03-18T04:34:01.507Z,9.54
2023-03-18T04:36:30.907Z,9.56
2023-03-18T04:39:00.031Z,9.48
2023-03-18T04:41:29.290Z,9.54
2023-03-18T04:44:01.264Z,9.52
2023-03-18T04:46:41.626Z,9.54
2023-03-18T04:49:11.736Z,9.61
2023-03-18T04:51:41.039Z,9.58
2023-03-18T04:54:18.501Z,9.57
2023-03-18T04:56:48.053Z,9.46
2023-03-18T04:59:18.133Z,9.45
2023-03-18T05:01:49.653Z,9.45
2023-03-18T05:04:19.674Z,9.54
2023-03-18T05:06:53.650Z,9.46
2023-03-18T05:09:28.802Z,9.55
2023-03-18T05:11:58.079Z,9.58
2023-03-18T05:14:34.898Z,9.42
2023-03-18T05:17:05.743Z,9.42
2023-03-18T05:19:38.085Z,9.51
2023-03-18T05:22:19.499Z,9.46
2023-03-18T05:24:51.462Z,9.57
2023-03-18T05:27:22.227Z,9.58
2023-03-18T05:30:01.017Z,9.62
2023-03-18T05:32:38.333Z,9.66
2023-03-18T05:35:11.558Z,9.60
2023-03-18T05:37:50.550Z,9.60
2023-03-18T05:40:20.435Z,9.64
2023-03-18T05:43:10.391Z,9.65
2023-03-18T05:45:45.667Z,9.66
2023-03-18T05:48:18.836Z,9.68
2023-03-18T05:50:53.452Z,9.71
2023-03-18T05:53:27.140Z,9.71
2023-03-18T05:56:06.100Z,9.86
2023-03-18T05:58:35.490Z,9.81
2023-03-18T06:01:21.925Z,9.86
2023-03-18T06:03:53.398Z,9.88
2023-03-18T06:06:22.709Z,9.87
2023-03-18T06:08:53.139Z,9.85
2023-03-18T06:11:23.287Z,9.89
2023-03-18T06:13:53.481Z,9.91
2023-03-18T06:16:23.507Z,9.95
2023-03-18T06:18:56.356Z,10.03
2023-03-18T06:21:25.570Z,10.04
2023-03-18T06:23:55.071Z,10.11
2023-03-18T06:26:24.956Z,10.08
2023-03-18T06:28:54.255Z,10.14
2023-03-18T06:31:27.372Z,10.21
2023-03-18T06:34:00.817Z,10.21
2023-03-18T06:36:33.594Z,10.26
2023-03-18T06:39:05.129Z,10.26
2023-03-18T06:41:35.354Z,10.26
2023-03-18T06:44:19.625Z,10.28
2023-03-18T06:46:49.519Z,10.29
2023-03-18T06:49:21.791Z,10.36
2023-03-18T06:51:56.389Z,10.32
2023-03-18T06:54:26.262Z,10.33
2023-03-18T06:56:56.258Z,10.51
2023-03-18T06:59:25.762Z,10.46
2023-03-18T07:01:55.009Z,10.52
2023-03-18T07:04:25.995Z,10.52
2023-03-18T07:06:56.360Z,10.67
2023-03-18T07:09:25.510Z,10.67
2023-03-18T07:11:58.594Z,10.81
2023-03-18T07:14:29.312Z,10.80
2023-03-18T07:16:58.661Z,10.84
2023-03-18T07:19:29.881Z,10.94
2023-03-18T07:21:59.047Z,11.10
2023-03-18T07:24:28.534Z,11.20
2023-03-18T07:26:58.901Z,11.28
2023-03-18T07:29:28.268Z,11.50
2023-03-18T07:31:57.554Z,11.66
2023-03-18T07:34:28.691Z,11.65
2023-03-18T07:36:57.799Z,11.90
2023-03-18T07:39:27.484Z,11.93
2023-03-18T07:41:56.627Z,12.05
2023-03-18T07:44:31.320Z,12.19
2023-03-18T07:47:00.424Z,12.04
2023-03-18T07:49:31.773Z,12.01
2023-03-18T07:52:02.009Z,11.98
2023-03-18T07:54:31.315Z,12.02
2023-03-18T07:57:00.449Z,12.11
2023-03-18T07:59:29.530Z,11.95
2023-03-18T08:01:58.585Z,11.92
2023-03-18T08:04:27.803Z,12.04
2023-03-18T08:06:58.897Z,12.01
2023-03-18T08:09:29.015Z,12.12
2023-03-18T08:11:58.152Z,12.28
2023-03-18T08:14:27.386Z,12.13
2023-03-18T08:16:56.664Z,12.20
2023-03-18T08:19:26.842Z,12.33
2023-03-18T08:21:57.417Z,12.31
2023-03-18T08:24:26.677Z,12.17
2023-03-18T08:26:56.666Z,12.29
2023-03-18T08:29:25.767Z,12.18
2023-03-18T08:31:55.253Z,12.23
2023-03-18T08:34:24.442Z,12.13
2023-03-18T08:36:54.822Z,12.08
2023-03-18T08:39:25.244Z,12.26
2023-03-18T08:41:54.449Z,12.18
2023-03-18T08:44:23.449Z,12.17
2023-03-18T08:46:52.656Z,12.12
2023-03-18T08:49:21.752Z,12.01
2023-03-18T08:51:50.794Z,12.15
2023-03-18T08:54:20.167Z,12.20
2023-03-18T08:56:52.623Z,12.17
2023-03-18T08:59:21.737Z,12.08
2023-03-18T09:01:50.918Z,12.01
2023-03-18T09:04:20.568Z,11.96
2023-03-18T09:06:49.996Z,11.95
2023-03-18T09:09:19.212Z,11.95
2023-03-18T09:11:49.781Z,11.93
2023-03-18T09:14:19.749Z,11.90
2023-03-18T09:16:48.845Z,11.81
2023-03-18T09:19:17.947Z,11.89
2023-03-18T09:21:47.025Z,11.71
2023-03-18T09:24:16.076Z,11.73
2023-03-18T09:26:45.258Z,11.63
2023-03-18T09:29:15.724Z,11.41
2023-03-18T09:31:45.115Z,11.39
2023-03-18T09:34:14.421Z,11.39
2023-03-18T09:36:50.786Z,11.33
2023-03-18T09:39:20.144Z,11.27
2023-03-18T09:42:05.263Z,11.33
2023-03-18T09:44:37.261Z,11.25
2023-03-18T09:47:22.141Z,11.36
2023-03-18T09:50:06.292Z,11.44
2023-03-18T09:52:41.050Z,11.40
2023-03-18T09:55:21.493Z,11.37
2023-03-18T09:57:55.299Z,11.46
2023-03-18T10:00:31.206Z,11.55
2023-03-18T10:03:06.328Z,11.69
2023-03-18T10:05:41.547Z,11.75
2023-03-18T10:08:18.443Z,11.62
2023-03-18T10:10:48.634Z,11.67
2023-03-18T10:13:24.102Z,11.87
2023-03-18T10:15:57.641Z,11.81
2023-03-18T10:18:30.382Z,11.94
2023-03-18T10:21:13.024Z,12.06
2023-03-18T10:23:50.754Z,12.59
2023-03-18T10:26:28.301Z,13.18
2023-03-18T10:29:08.573Z,13.19
2023-03-18T10:31:54.578Z,13.30
2023-03-18T10:34:28.188Z,12.88
2023-03-18T10:37:03.021Z,13.27
2023-03-18T10:39:33.610Z,12.98
2023-03-18T10:42:16.557Z,13.36
2023-03-18T10:44:46.481Z,13.23
2023-03-18T10:47:21.154Z,13.28
2023-03-18T10:50:00.630Z,13.64
2023-03-18T10:52:35.693Z,13.48
2023-03-18T10:55:05.847Z,13.73
2023-03-18T10:57:34.928Z,13.62
2023-03-18T11:00:04.574Z,14.19
2023-03-18T11:02:39.490Z,13.68
2023-03-18T11:05:23.219Z,14.27
2023-03-18T11:08:00.671Z,14.97
2023-03-18T11:10:35.590Z,14.79
2023-03-18T11:13:06.455Z,13.92
2023-03-18T11:15:39.775Z,14.11
2023-03-18T11:18:19.537Z,14.49
2023-03-18T11:20:55.989Z,15.54
2023-03-18T11:23:46.167Z,15.69
2023-03-18T11:26:22.662Z,14.48
2023-03-18T11:28:57.520Z,15.31
2023-03-18T11:31:27.893Z,14.65
2023-03-18T11:34:00.734Z,13.94
2023-03-18T11:36:32.292Z,14.85
2023-03-18T11:39:06.802Z,14.56
2023-03-18T11:41:40.967Z,15.31
2023-03-18T11:44:19.061Z,15.71
2023-03-18T11:46:53.398Z,15.10
2023-03-18T11:49:27.048Z,15.32
2023-03-18T11:52:17.429Z,15.88
2023-03-18T11:55:18.430Z,15.16
2023-03-18T11:58:15.703Z,16.18
2023-03-18T12:00:53.637Z,17.21
2023-03-18T12:04:02.081Z,15.68
2023-03-18T12:06:35.916Z,15.46
2023-03-18T12:09:12.594Z,15.28
2023-03-18T12:12:00.685Z,15.17
2023-03-18T12:14:38.816Z,15.59
2023-03-18T12:17:24.068Z,15.93
2023-03-18T12:20:16.223Z,16.58
2023-03-18T12:23:02.284Z,17.01
2023-03-18T12:26:01.938Z,16.80
2023-03-18T12:28:49.163Z,17.18
2023-03-18T12:31:41.497Z,16.39
2023-03-18T12:34:23.466Z,17.12
2023-03-18T12:37:06.252Z,18.12
2023-03-18T12:40:12.557Z,18.45
2023-03-18T12:42:56.234Z,17.25
2023-03-18T12:45:31.568Z,15.94
2023-03-18T12:48:05.741Z,15.93
2023-03-18T12:50:38.805Z,16.81
2023-03-18T12:53:16.616Z,16.57
2023-03-18T12:55:50.139Z,16.16
2023-03-18T12:58:24.155Z,16.06
2023-03-18T13:01:00.451Z,15.90
2023-03-18T13:03:33.983Z,15.87
2023-03-18T13:06:10.137Z,16.10
2023-03-18T13:09:00.528Z,15.76
2023-03-18T13:12:02.638Z,16.37
2023-03-18T13:14:42.752Z,15.71
2023-03-18T13:17:18.868Z,15.49
2023-03-18T13:19:48.173Z,15.59
2023-03-18T13:22:36.688Z,15.71
2023-03-18T13:25:15.630Z,16.60
2023-03-18T13:28:03.313Z,15.70
2023-03-18T13:30:45.799Z,15.66
2023-03-18T13:33:34.246Z,16.21
2023-03-18T13:36:28.570Z,16.17
2023-03-18T13:39:26.754Z,16.30
2023-03-18T13:42:15.269Z,16.24
2023-03-18T13:44:51.178Z,16.59
2023-03-18T13:47:23.402Z,17.04
2023-03-18T13:50:02.104Z,16.33
2023-03-18T13:52:43.710Z,16.47
2023-03-18T13:55:26.789Z,15.87
2023-03-18T13:57:58.635Z,15.79
2023-03-18T14:00:35.484Z,15.64
2023-03-18T14:03:23.150Z,15.63
2023-03-18T14:05:54.134Z,15.76
2023-03-18T14:08:49.549Z,15.86
2023-03-18T14:11:53.486Z,15.69
2023-03-18T14:15:05.847Z,16.08
2023-03-18T14:17:47.679Z,17.61
2023-03-18T14:20:27.071Z,16.93
2023-03-18T14:22:57.852Z,17.28
2023-03-18T14:25:43.200Z,17.26
2023-03-18T14:28:26.413Z,17.30
2023-03-18T14:31:28.327Z,17.06
2023-03-18T14:34:21.775Z,17.04
2023-03-18T14:37:29.390Z,17.40
2023-03-18T14:40:05.400Z,17.33
2023-03-18T14:42:43.875Z,17.18
2023-03-18T14:45:20.664Z,17.42
2023-03-18T14:47:52.585Z,16.98
2023-03-18T14:50:33.673Z,16.60
2023-03-18T14:53:12.147Z,16.54
2023-03-18T14:55:41.743Z,16.42
2023-03-18T14:58:17.733Z,16.30
2023-03-18T15:00:49.661Z,16.42
2023-03-18T15:03:24.236Z,16.29
2023-03-18T15:06:00.425Z,16.17
2023-03-18T15:08:46.807Z,16.16
2023-03-18T15:11:18.239Z,15.93
2023-03-18T15:13:47.316Z,16.30
2023-03-18T15:16:20.776Z,16.10
2023-03-18T15:18:54.892Z,15.84
2023-03-18T15:21:30.161Z,16.04
2023-03-18T15:24:04.146Z,16.52
2023-03-18T15:26:37.405Z,16.65
2023-03-18T15:29:28.915Z,16.33
2023-03-18T15:32:10.682Z,16.18
2023-03-18T15:34:44.224Z,16.06
2023-03-18T15:37:33.513Z,16.03
2023-03-18T15:40:28.905Z,15.68
2023-03-18T15:42:59.420Z,15.66
2023-03-18T15:45:31.056Z,15.56
2023-03-18T15:48:10.121Z,15.69
2023-03-18T15:50:52.577Z,15.62
2023-03-18T15:53:26.069Z,15.86
2023-03-18T15:55:56.657Z,15.62
2023-03-18T15:58:29.010Z,15.85
2023-03-18T16:00:58.648Z,15.86
2023-03-18T16:03:32.238Z,15.91
2023-03-18T16:06:01.940Z,15.74
2023-03-18T16:08:32.597Z,15.70
2023-03-18T16:11:03.846Z,15.72
2023-03-18T16:13:36.165Z,16.04
2023-03-18T16:16:06.302Z,16.13
2023-03-18T16:18:35.400Z,15.71
2023-03-18T16:21:04.644Z,16.08
2023-03-18T16:23:34.998Z,15.99
2023-03-18T16:26:05.083Z,15.98
2023-03-18T16:28:34.148Z,15.63
2023-03-18T16:31:03.451Z,15.72
2023-03-18T16:33:33.233Z,15.80
2023-03-18T16:36:03.971Z,15.58
2023-03-18T16:38:35.399Z,15.60
2023-03-18T16:41:05.076Z,15.55
2023-03-18T16:43:34.130Z,15.30
2023-03-18T16:46:05.638Z,15.23
2023-03-18T16:48:35.111Z,15.17
2023-03-18T16:51:04.517Z,15.37
2023-03-18T16:53:34.973Z,15.15
2023-03-18T16:56:16.357Z,15.04
2023-03-18T16:58:46.267Z,14.91
2023-03-18T17:01:19.218Z,14.84
2023-03-18T17:03:48.405Z,14.76
2023-03-18T17:06:17.423Z,14.70
2023-03-18T17:08:47.821Z,14.51
2023-03-18T17:11:19.101Z,14.49
2023-03-18T17:13:48.675Z,14.36
2023-03-18T17:16:21.152Z,14.24
2023-03-18T17:18:51.108Z,14.19
2023-03-18T17:21:21.057Z,14.11
2023-03-18T17:23:52.372Z,13.98
2023-03-18T17:26:25.037Z,13.92
2023-03-18T17:28:56.340Z,13.77
2023-03-18T17:31:26.354Z,13.72
2023-03-18T17:33:56.294Z,13.65
2023-03-18T17:36:26.709Z,13.61
2023-03-18T17:39:00.487Z,13.53
2023-03-18T17:41:32.547Z,13.53
2023-03-18T17:44:02.397Z,13.49
2023-03-18T17:46:33.312Z,13.40
2023-03-18T17:49:04.708Z,13.28
2023-03-18T17:51:34.606Z,13.18
2023-03-18T17:54:06.324Z,13.10
2023-03-18T17:56:38.218Z,13.08
2023-03-18T17:59:14.631Z,12.92
2023-03-18T18:01:45.980Z,12.90
2023-03-18T18:04:17.753Z,12.88
2023-03-18T18:06:49.093Z,12.79
2023-03-18T18:09:20.730Z,12.80
2023-03-18T18:11:50.928Z,12.64
2023-03-18T18:14:23.561Z,12.57
2023-03-18T18:16:55.928Z,12.48
2023-03-18T18:19:25.322Z,12.51
2023-03-18T18:21:54.931Z,12.44
2023-03-18T18:24:29.570Z,12.41
2023-03-18T18:26:58.865Z,12.35
2023-03-18T18:29:29.323Z,12.42
2023-03-18T18:31:58.515Z,12.32
2023-03-18T18:34:27.556Z,12.29
2023-03-18T18:36:57.110Z,12.40
2023-03-18T18:39:27.566Z,12.41
2023-03-18T18:41:56.713Z,12.42
2023-03-18T18:44:26.018Z,12.37
2023-03-18T18:46:55.528Z,12.00
2023-03-18T18:49:26.061Z,11.95
2023-03-18T18:51:56.570Z,12.00
2023-03-18T18:54:28.408Z,12.05
2023-03-18T18:56:58.358Z,12.06
2023-03-18T18:59:31.831Z,12.13
2023-03-18T19:02:01.162Z,12.18
2023-03-18T19:04:30.212Z,12.26
2023-03-18T19:07:02.666Z,12.29
2023-03-18T19:09:33.198Z,12.35
2023-03-18T19:12:02.259Z,12.41
2023-03-18T19:14:33.023Z,12.45
2023-03-18T19:17:03.584Z,12.37
2023-03-18T19:19:35.428Z,12.29
2023-03-18T19:22:05.309Z,12.15
2023-03-18T19:24:37.085Z,12.07
2023-03-18T19:27:14.477Z,12.04
2023-03-18T19:29:45.845Z,12.02
2023-03-18T19:32:18.994Z,11.91
2023-03-18T19:34:48.980Z,11.83
2023-03-18T19:37:19.983Z,11.78
2023-03-18T19:39:50.630Z,11.71
2023-03-18T19:42:20.606Z,11.67
2023-03-18T19:44:50.432Z,11.66
2023-03-18T19:47:23.016Z,11.64
2023-03-18T19:49:52.477Z,11.57
2023-03-18T19:52:24.886Z,11.56
2023-03-18T19:54:55.854Z,11.55
2023-03-18T19:57:27.365Z,11.57
2023-03-18T19:59:58.574Z,11.54
2023-03-18T20:02:29.541Z,11.54
2023-03-18T20:05:01.139Z,11.59
2023-03-18T20:07:32.628Z,11.57
2023-03-18T20:10:03.233Z,11.53
2023-03-18T20:12:35.765Z,11.34
2023-03-18T20:15:05.590Z,11.19
2023-03-18T20:17:38.747Z,11.04
2023-03-18T20:20:11.659Z,11.06
2023-03-18T20:22:45.739Z,11.12
2023-03-18T20:25:25.377Z,11.21
2023-03-18T20:27:56.473Z,11.21
2023-03-18T20:30:29.117Z,11.23
2023-03-18T20:33:00.028Z,11.23
2023-03-18T20:35:31.779Z,11.26
2023-03-18T20:38:04.861Z,11.29
2023-03-18T20:40:35.332Z,11.43
2023-03-18T20:43:04.484Z,11.55
2023-03-18T20:45:33.920Z,11.57
2023-03-18T20:48:03.296Z,11.63
2023-03-18T20:50:33.175Z,11.57
2023-03-18T20:53:04.613Z,11.36
2023-03-18T20:55:36.046Z,11.29
2023-03-18T20:58:07.266Z,11.27
2023-03-18T21:00:36.312Z,11.24
2023-03-18T21:03:05.544Z,11.28
2023-03-18T21:05:35.084Z,11.24
2023-03-18T21:08:04.392Z,11.23
2023-03-18T21:10:37.143Z,11.25
2023-03-18T21:13:23.832Z,11.24
2023-03-18T21:15:52.914Z,11.07
2023-03-18T21:18:22.424Z,11.02
2023-03-18T21:20:51.645Z,11.05
2023-03-18T21:23:22.828Z,11.12
2023-03-18T21:25:54.575Z,11.10
2023-03-18T21:28:25.850Z,11.10
2023-03-18T21:30:58.063Z,11.16
2023-03-18T21:33:28.939Z,11.04
2023-03-18T21:35:58.553Z,11.05
2023-03-18T21:38:29.104Z,11.09
2023-03-18T21:41:01.899Z,11.09
2023-03-18T21:43:34.418Z,11.04
2023-03-18T21:46:05.380Z,10.96
2023-03-18T21:48:34.572Z,10.98
2023-03-18T21:51:03.736Z,11.01
2023-03-18T21:53:32.848Z,11.07
2023-03-18T21:56:03.269Z,11.19
2023-03-18T21:58:32.357Z,11.21
2023-03-18T22:01:01.872Z,11.29
2023-03-18T22:03:32.450Z,11.22
2023-03-18T22:06:01.621Z,11.09
2023-03-18T22:08:30.985Z,10.99
2023-03-18T22:11:00.020Z,10.88
2023-03-18T22:13:30.393Z,10.81
2023-03-18T22:15:59.537Z,10.69
2023-03-18T22:18:28.544Z,10.62
2023-03-18T22:20:58.427Z,10.54
2023-03-18T22:23:29.877Z,10.54
2023-03-18T22:25:59.467Z,10.50
2023-03-18T22:28:32.156Z,10.52
2023-03-18T22:31:03.457Z,10.49
2023-03-18T22:33:34.501Z,10.33
2023-03-18T22:36:03.607Z,10.48
2023-03-18T22:38:32.792Z,10.67
2023-03-18T22:41:01.996Z,10.73
2023-03-18T22:43:34.739Z,10.81
2023-03-18T22:46:06.197Z,10.87
2023-03-18T22:48:35.340Z,10.88
2023-03-18T22:51:05.520Z,10.91
2023-03-18T22:53:37.399Z,10.94
2023-03-18T22:56:11.370Z,10.89
2023-03-18T22:58:42.269Z,10.86
2023-03-18T23:01:15.057Z,10.81
2023-03-18T23:03:46.149Z,10.80
2023-03-18T23:06:18.531Z,10.88
2023-03-18T23:08:48.228Z,10.84
2023-03-18T23:11:18.032Z,10.84
2023-03-18T23:13:50.794Z,10.84
2023-03-18T23:16:21.786Z,10.93
2023-03-18T23:18:51.645Z,10.95
2023-03-18T23:21:22.861Z,11.06
2023-03-18T23:23:52.713Z,11.00
2023-03-18T23:26:22.388Z,10.99
2023-03-18T23:28:52.884Z,10.84
2023-03-18T23:31:21.980Z,10.78
2023-03-18T23:33:51.059Z,10.71
2023-03-18T23:36:20.123Z,10.54
2023-03-18T23:38:49.169Z,10.38
2023-03-18T23:41:18.320Z,10.41
2023-03-18T23:43:47.508Z,10.50
2023-03-18T23:46:17.971Z,10.44
2023-03-18T23:48:47.135Z,10.35
2023-03-18T23:51:16.169Z,10.29
2023-03-18T23:53:45.225Z,10.25
2023-03-18T23:56:14.907Z,10.24
2023-03-18T23:58:43.993Z,10.26
